createdAt,value
2019-04-16T00:00:25.451Z,88.80
2019-04-16T00:02:58.292Z,88.30
2019-04-16T00:05:31.179Z,88.60
2019-04-16T00:08:26.578Z,88.30
2019-04-16T00:10:57.527Z,88.80
2019-04-16T00:13:36.381Z,88.60
2019-04-16T00:16:04.840Z,89.30
2019-04-16T00:18:33.295Z,89.10
2019-04-16T00:21:19.339Z,89.40
2019-04-16T00:23:49.467Z,89.30
2019-04-16T00:26:17.924Z,89.50
2019-04-16T00:28:46.419Z,89.60
2019-04-16T00:31:14.887Z,90.00
2019-04-16T00:33:43.588Z,90.00
2019-04-16T00:36:12.409Z,90.10
2019-04-16T00:38:41.336Z,90.10
2019-04-16T00:41:10.104Z,90.40
2019-04-16T00:43:38.655Z,90.40
2019-04-16T00:46:11.481Z,90.40
2019-04-16T00:48:38.835Z,90.40
2019-04-16T00:51:07.374Z,90.40
2019-04-16T00:53:36.386Z,90.30
2019-04-16T00:56:06.062Z,90.60
2019-04-16T00:58:34.607Z,90.30
2019-04-16T01:01:03.071Z,90.30
2019-04-16T01:03:31.535Z,90.40
2019-04-16T01:06:00.018Z,90.40
2019-04-16T01:08:28.471Z,90.50
2019-04-16T01:10:56.952Z,90.60
2019-04-16T01:13:25.459Z,90.90
2019-04-16T01:15:53.923Z,90.70
2019-04-16T01:18:22.451Z,90.70
2019-04-16T01:20:50.931Z,90.90
2019-04-16T01:23:19.391Z,91.00
2019-04-16T01:25:47.853Z,91.70
2019-04-16T01:28:20.703Z,91.10
2019-04-16T01:30:50.867Z,91.20
2019-04-16T01:33:24.068Z,91.40
2019-04-16T01:36:06.360Z,91.40
2019-04-16T01:38:36.499Z,91.90
2019-04-16T01:41:06.692Z,91.90
2019-04-16T01:43:35.243Z,92.20
2019-04-16T01:46:03.840Z,92.20
2019-04-16T01:48:32.330Z,92.20
2019-04-16T01:51:00.879Z,92.20
2019-04-16T01:53:29.339Z,92.20
2019-04-16T01:55:57.819Z,92.30
2019-04-16T01:58:26.304Z,92.20
2019-04-16T02:00:54.837Z,92.20
2019-04-16T02:03:23.295Z,92.20
2019-04-16T02:05:54.556Z,92.50
2019-04-16T02:08:22.093Z,92.60
2019-04-16T02:10:50.548Z,92.40
2019-04-16T02:13:19.042Z,92.40
2019-04-16T02:15:47.497Z,92.50
2019-04-16T02:18:16.603Z,92.80
2019-04-16T02:20:45.087Z,92.70
2019-04-16T02:23:16.788Z,92.50
2019-04-16T02:25:48.568Z,92.70
2019-04-16T02:28:15.872Z,93.10
2019-04-16T02:30:44.330Z,92.80
2019-04-16T02:33:12.926Z,92.80
2019-04-16T02:35:41.450Z,92.90
2019-04-16T02:38:12.222Z,92.90
2019-04-16T02:40:40.351Z,92.90
2019-04-16T02:43:08.929Z,93.10
2019-04-16T02:45:37.568Z,93.50
2019-04-16T02:48:06.155Z,93.40
2019-04-16T02:50:39.255Z,93.50
2019-04-16T02:53:27.844Z,93.60
2019-04-16T02:56:03.611Z,93.80
2019-04-16T02:58:35.169Z,94.10
2019-04-16T03:01:14.912Z,93.90
2019-04-16T03:03:47.675Z,93.90
2019-04-16T03:06:16.187Z,94.00
2019-04-16T03:08:44.648Z,94.00
2019-04-16T03:11:13.743Z,94.20
2019-04-16T03:13:43.860Z,94.20
2019-04-16T03:16:20.365Z,94.20
2019-04-16T03:18:50.570Z,94.20
2019-04-16T03:21:19.087Z,94.50
2019-04-16T03:23:47.735Z,94.50
2019-04-16T03:26:18.055Z,94.70
2019-04-16T03:28:46.540Z,94.70
2019-04-16T03:31:22.468Z,94.70
2019-04-16T03:33:50.502Z,94.80
2019-04-16T03:36:15.392Z,95.10
2019-04-16T03:38:43.891Z,95.20
2019-04-16T03:41:12.354Z,95.20
2019-04-16T03:43:42.339Z,95.40
2019-04-16T03:46:13.094Z,95.50
2019-04-16T03:48:42.825Z,95.60
2019-04-16T03:51:11.291Z,95.70
2019-04-16T03:53:39.845Z,95.80
2019-04-16T03:56:08.310Z,96.00
2019-04-16T03:58:38.531Z,96.20
2019-04-16T04:01:08.591Z,96.40
2019-04-16T04:03:37.072Z,96.50
2019-04-16T04:06:06.842Z,96.50
2019-04-16T04:08:35.748Z,96.90
2019-04-16T04:11:09.090Z,96.90
2019-04-16T04:13:34.475Z,97.30
2019-04-16T04:16:03.321Z,97.00
2019-04-16T04:18:31.951Z,97.40
2019-04-16T04:21:00.480Z,97.50
2019-04-16T04:23:29.441Z,97.40
2019-04-16T04:25:58.309Z,97.60
2019-04-16T04:28:26.797Z,97.80
2019-04-16T04:30:57.731Z,97.90
2019-04-16T04:33:41.662Z,98.00
2019-04-16T04:36:10.320Z,98.10
2019-04-16T04:38:39.843Z,98.40
2019-04-16T04:41:08.671Z,98.50
2019-04-16T04:43:37.214Z,98.70
2019-04-16T04:46:05.830Z,98.70
2019-04-16T04:48:34.383Z,98.90
2019-04-16T04:51:07.011Z,99.00
2019-04-16T04:53:33.521Z,99.30
2019-04-16T04:56:02.001Z,99.30
2019-04-16T04:58:33.833Z,99.20
2019-04-16T05:01:00.733Z,99.50
2019-04-16T05:03:30.896Z,99.70
2019-04-16T05:06:01.013Z,99.80
2019-04-16T05:08:29.849Z,99.90
2019-04-16T05:11:02.585Z,99.90
2019-04-16T05:13:28.631Z,99.90
2019-04-16T05:15:58.340Z,99.90
2019-04-16T05:18:27.319Z,99.90
2019-04-16T05:20:56.695Z,99.90
2019-04-16T05:23:26.150Z,99.90
2019-04-16T05:25:54.689Z,99.90
2019-04-16T05:28:23.193Z,99.90
2019-04-16T05:30:52.276Z,99.90
2019-04-16T05:33:21.507Z,99.90
2019-04-16T05:35:49.991Z,99.90
2019-04-16T05:38:20.429Z,99.90
2019-04-16T05:40:48.655Z,99.90
2019-04-16T05:43:17.115Z,99.90
2019-04-16T05:45:45.582Z,99.90
2019-04-16T05:48:14.052Z,99.90
2019-04-16T05:50:42.527Z,99.90
2019-04-16T05:53:13.212Z,99.90
2019-04-16T05:55:49.544Z,99.90
2019-04-16T05:58:15.960Z,99.90
2019-04-16T06:00:54.868Z,99.60
2019-04-16T06:03:23.396Z,99.50
2019-04-16T06:05:51.888Z,99.60
2019-04-16T06:08:20.357Z,99.30
2019-04-16T06:10:50.874Z,99.20
2019-04-16T06:13:26.387Z,98.60
2019-04-16T06:15:56.539Z,98.60
2019-04-16T06:18:36.750Z,98.60
2019-04-16T06:21:22.599Z,98.50
2019-04-16T06:23:54.587Z,98.00
2019-04-16T06:26:30.203Z,97.10
2019-04-16T06:29:09.311Z,96.80
2019-04-16T06:31:40.124Z,96.60
2019-04-16T06:34:18.949Z,96.30
2019-04-16T06:37:05.288Z,96.30
2019-04-16T06:39:41.701Z,95.80
2019-04-16T06:42:11.872Z,96.00
2019-04-16T06:44:53.988Z,95.10
2019-04-16T06:47:36.217Z,95.20
2019-04-16T06:50:32.186Z,94.60
2019-04-16T06:53:05.028Z,94.10
2019-04-16T06:55:44.183Z,94.50
2019-04-16T06:58:20.096Z,93.70
2019-04-16T07:00:53.167Z,92.60
2019-04-16T07:03:32.346Z,92.90
2019-04-16T07:06:04.785Z,92.40
2019-04-16T07:08:51.668Z,92.30
2019-04-16T07:11:21.795Z,92.00
2019-04-16T07:13:50.271Z,91.50
2019-04-16T07:16:18.752Z,90.90
2019-04-16T07:18:47.243Z,90.50
2019-04-16T07:21:17.491Z,89.70
2019-04-16T07:23:47.067Z,89.70
2019-04-16T07:26:15.881Z,89.40
2019-04-16T07:28:48.561Z,88.30
2019-04-16T07:31:35.271Z,88.30
2019-04-16T07:34:11.274Z,86.60
2019-04-16T07:36:44.161Z,85.00
2019-04-16T07:39:29.705Z,85.70
2019-04-16T07:42:12.685Z,85.90
2019-04-16T07:44:51.044Z,85.30
2019-04-16T07:47:30.238Z,84.70
2019-04-16T07:50:01.445Z,82.20
2019-04-16T07:52:41.999Z,82.10
2019-04-16T07:55:28.297Z,80.30
2019-04-16T07:57:56.810Z,80.50
2019-04-16T08:00:25.277Z,81.00
2019-04-16T08:02:54.705Z,81.80
2019-04-16T08:05:23.647Z,78.80
2019-04-16T08:07:52.868Z,78.80
2019-04-16T08:10:22.312Z,78.20
2019-04-16T08:12:52.452Z,76.20
2019-04-16T08:15:21.060Z,76.50
2019-04-16T08:17:49.587Z,75.40
2019-04-16T08:20:21.032Z,74.60
2019-04-16T08:22:49.639Z,74.00
2019-04-16T08:25:19.753Z,73.90
2019-04-16T08:27:50.797Z,72.20
2019-04-16T08:30:19.971Z,72.50
2019-04-16T08:32:48.931Z,72.60
2019-04-16T08:35:18.376Z,70.00
2019-04-16T08:37:49.110Z,68.40
2019-04-16T08:40:17.164Z,69.40
2019-04-16T08:42:45.649Z,67.90
2019-04-16T08:45:14.276Z,66.50
2019-04-16T08:47:45.131Z,66.50
2019-04-16T08:50:13.155Z,66.40
2019-04-16T08:52:42.560Z,68.30
2019-04-16T08:55:11.444Z,63.90
2019-04-16T08:57:39.935Z,65.40
2019-04-16T09:00:14.103Z,65.20
2019-04-16T09:02:40.408Z,62.40
2019-04-16T09:05:11.497Z,62.30
2019-04-16T09:07:42.305Z,62.90
2019-04-16T09:10:21.637Z,63.80
2019-04-16T09:13:01.989Z,60.00
2019-04-16T09:15:27.071Z,61.30
2019-04-16T09:17:56.772Z,60.30
2019-04-16T09:20:27.011Z,58.20
2019-04-16T09:22:58.308Z,57.50
2019-04-16T09:25:30.407Z,58.20
2019-04-16T09:28:24.038Z,58.40
2019-04-16T09:30:41.261Z,57.30
2019-04-16T09:33:14.071Z,58.00
2019-04-16T09:35:45.088Z,56.20
2019-04-16T09:38:18.059Z,57.30
2019-04-16T09:41:00.264Z,57.70
2019-04-16T09:43:30.439Z,56.20
2019-04-16T09:46:09.730Z,56.30
2019-04-16T09:48:34.456Z,54.60
2019-04-16T09:50:59.657Z,53.80
2019-04-16T09:53:34.284Z,53.80
2019-04-16T09:56:01.499Z,54.10
2019-04-16T09:58:29.963Z,54.10
2019-04-16T10:01:00.144Z,52.40
2019-04-16T10:03:33.387Z,53.20
2019-04-16T10:06:05.213Z,53.80
2019-04-16T10:08:32.099Z,52.20
2019-04-16T10:11:02.716Z,51.80
2019-04-16T10:13:35.719Z,51.20
2019-04-16T10:16:01.153Z,50.20
2019-04-16T10:18:34.814Z,51.00
2019-04-16T10:20:59.875Z,50.60
2019-04-16T10:23:45.343Z,49.50
2019-04-16T10:26:14.163Z,50.10
2019-04-16T10:28:44.304Z,48.60
2019-04-16T10:31:14.945Z,48.10
2019-04-16T10:33:43.478Z,48.40
2019-04-16T10:36:11.980Z,48.10
2019-04-16T10:38:42.163Z,46.90
2019-04-16T10:41:12.591Z,47.60
2019-04-16T10:43:48.945Z,47.70
2019-04-16T10:46:36.917Z,45.00
2019-04-16T10:49:07.551Z,46.60
2019-04-16T10:51:37.703Z,44.70
2019-04-16T10:54:07.813Z,44.70
2019-04-16T10:56:57.934Z,44.90
2019-04-16T10:59:42.388Z,44.30
2019-04-16T11:02:12.601Z,44.70
2019-04-16T11:05:02.094Z,44.10
2019-04-16T11:07:33.415Z,43.00
2019-04-16T11:10:01.920Z,43.20
2019-04-16T11:12:30.493Z,42.90
2019-04-16T11:14:59.153Z,42.90
2019-04-16T11:17:29.052Z,43.80
2019-04-16T11:20:00.066Z,42.70
2019-04-16T11:22:27.878Z,42.70
2019-04-16T11:24:56.336Z,42.20
2019-04-16T11:27:24.813Z,41.90
2019-04-16T11:29:53.347Z,42.40
2019-04-16T11:32:29.210Z,42.00
2019-04-16T11:34:57.771Z,40.50
2019-04-16T11:37:26.323Z,41.00
2019-04-16T11:39:54.902Z,41.10
2019-04-16T11:42:23.618Z,41.00
2019-04-16T11:44:52.114Z,41.30
2019-04-16T11:47:20.712Z,41.90
2019-04-16T11:49:49.282Z,41.80
2019-04-16T11:52:18.079Z,42.10
2019-04-16T11:54:47.702Z,42.40
2019-04-16T11:57:16.338Z,41.90
2019-04-16T11:59:44.867Z,42.00
2019-04-16T12:02:23.991Z,41.30
2019-04-16T12:05:00.153Z,41.60
2019-04-16T12:07:36.349Z,42.10
2019-04-16T12:10:12.724Z,42.50
2019-04-16T12:12:59.151Z,42.90
2019-04-16T12:15:29.315Z,42.80
2019-04-16T12:18:15.880Z,44.50
2019-04-16T12:20:48.943Z,43.70
2019-04-16T12:23:21.929Z,43.60
2019-04-16T12:25:54.589Z,44.20
2019-04-16T12:28:33.573Z,44.20
2019-04-16T12:31:37.848Z,43.60
2019-04-16T12:34:13.823Z,44.80
2019-04-16T12:37:00.386Z,43.90
2019-04-16T12:39:46.949Z,44.70
2019-04-16T12:42:26.086Z,45.30
2019-04-16T12:44:56.214Z,45.30
2019-04-16T12:47:26.363Z,46.50
2019-04-16T12:50:12.577Z,46.00
2019-04-16T12:52:45.624Z,46.70
2019-04-16T12:55:23.707Z,47.60
2019-04-16T12:57:59.700Z,48.00
2019-04-16T13:00:42.210Z,48.20
2019-04-16T13:03:37.395Z,46.50
2019-04-16T13:06:10.779Z,47.60
2019-04-16T13:08:53.730Z,48.40
2019-04-16T13:11:24.225Z,49.70
2019-04-16T13:13:54.504Z,49.40
2019-04-16T13:16:24.684Z,48.40
2019-04-16T13:19:06.726Z,48.90
2019-04-16T13:21:36.927Z,48.40
2019-04-16T13:24:07.068Z,48.90
2019-04-16T13:26:40.168Z,48.90
2019-04-16T13:29:10.287Z,49.80
2019-04-16T13:31:40.284Z,48.80
2019-04-16T13:34:08.780Z,48.80
2019-04-16T13:36:37.244Z,48.90
2019-04-16T13:39:09.882Z,48.50
2019-04-16T13:41:39.623Z,49.00
2019-04-16T13:44:12.547Z,49.70
2019-04-16T13:46:41.235Z,50.10
2019-04-16T13:49:14.043Z,49.70
2019-04-16T13:51:45.012Z,48.70
2019-04-16T13:54:14.327Z,49.10
2019-04-16T13:56:50.143Z,48.80
2019-04-16T13:59:21.955Z,49.00
2019-04-16T14:01:59.094Z,48.70
2019-04-16T14:04:31.483Z,49.00
2019-04-16T14:06:58.071Z,49.70
2019-04-16T14:09:26.667Z,50.00
2019-04-16T14:11:55.127Z,50.20
2019-04-16T14:14:25.548Z,50.30
2019-04-16T14:16:54.098Z,50.50
2019-04-16T14:19:22.676Z,50.20
2019-04-16T14:21:51.192Z,50.60
2019-04-16T14:24:19.739Z,50.30
2019-04-16T14:26:48.276Z,50.40
2019-04-16T14:29:16.774Z,50.70
2019-04-16T14:31:46.165Z,51.00
2019-04-16T14:34:23.258Z,51.20
2019-04-16T14:36:53.278Z,51.20
2019-04-16T14:39:23.708Z,51.50
2019-04-16T14:41:52.165Z,51.20
2019-04-16T14:44:22.286Z,51.10
2019-04-16T14:46:50.983Z,51.30
2019-04-16T14:49:19.628Z,51.80
2019-04-16T14:51:48.121Z,51.60
2019-04-16T14:54:33.567Z,51.90
2019-04-16T14:57:04.050Z,51.20
2019-04-16T14:59:35.615Z,51.80
2019-04-16T15:02:29.647Z,52.00
2019-04-16T15:05:05.963Z,52.90
2019-04-16T15:07:47.581Z,52.80
2019-04-16T15:10:20.672Z,53.40
2019-04-16T15:12:53.685Z,53.30
2019-04-16T15:15:26.069Z,53.60
2019-04-16T15:17:58.108Z,53.50
2019-04-16T15:20:47.545Z,53.70
2019-04-16T15:23:25.961Z,53.90
2019-04-16T15:26:04.844Z,54.10
2019-04-16T15:28:37.665Z,54.30
2019-04-16T15:31:15.778Z,54.00
2019-04-16T15:33:52.327Z,53.90
2019-04-16T15:36:24.151Z,54.00
2019-04-16T15:38:59.359Z,55.20
2019-04-16T15:41:36.630Z,54.90
2019-04-16T15:44:22.459Z,55.10
2019-04-16T15:47:02.582Z,55.50
2019-04-16T15:49:38.247Z,55.20
2019-04-16T15:52:23.611Z,56.10
2019-04-16T15:54:56.512Z,56.30
2019-04-16T15:57:35.439Z,57.00
2019-04-16T16:00:25.636Z,58.20
2019-04-16T16:03:11.729Z,59.00
2019-04-16T16:06:02.625Z,59.70
2019-04-16T16:08:46.907Z,60.10
2019-04-16T16:11:28.780Z,60.50
2019-04-16T16:14:01.604Z,60.60
2019-04-16T16:16:41.637Z,61.10
2019-04-16T16:19:10.899Z,61.50
2019-04-16T16:21:39.274Z,61.20
2019-04-16T16:24:11.970Z,62.00
2019-04-16T16:26:43.127Z,62.50
2019-04-16T16:29:14.051Z,62.40
2019-04-16T16:31:45.305Z,62.30
2019-04-16T16:34:16.839Z,62.40
2019-04-16T16:36:48.115Z,62.90
2019-04-16T16:39:19.965Z,63.10
2019-04-16T16:41:51.007Z,63.80
2019-04-16T16:44:22.782Z,63.90
2019-04-16T16:46:57.830Z,64.20
2019-04-16T16:49:29.145Z,64.60
2019-04-16T16:52:19.448Z,65.00
2019-04-16T16:54:51.535Z,65.90
2019-04-16T16:57:23.496Z,66.00
2019-04-16T17:00:12.759Z,66.60
2019-04-16T17:02:45.377Z,67.20
2019-04-16T17:05:27.770Z,67.70
2019-04-16T17:08:00.314Z,68.80
2019-04-16T17:10:31.573Z,68.80
2019-04-16T17:13:02.903Z,68.50
2019-04-16T17:15:34.408Z,69.00
2019-04-16T17:18:05.388Z,69.40
2019-04-16T17:20:38.396Z,70.00
2019-04-16T17:23:10.240Z,70.10
2019-04-16T17:25:41.435Z,71.00
2019-04-16T17:28:12.663Z,71.00
2019-04-16T17:30:44.709Z,71.30
2019-04-16T17:33:15.674Z,71.90
2019-04-16T17:35:47.147Z,72.30
2019-04-16T17:38:18.854Z,72.70
2019-04-16T17:41:00.895Z,73.30
2019-04-16T17:43:59.929Z,73.50
2019-04-16T17:46:36.071Z,74.30
2019-04-16T17:49:08.565Z,75.00
2019-04-16T17:51:44.882Z,75.80
2019-04-16T17:54:17.159Z,76.40
2019-04-16T17:57:05.384Z,77.20
2019-04-16T17:59:50.553Z,77.90
2019-04-16T18:02:34.892Z,78.40
2019-04-16T18:05:13.676Z,79.20
2019-04-16T18:07:46.144Z,79.90
2019-04-16T18:10:27.993Z,80.50
2019-04-16T18:13:15.539Z,82.00
2019-04-16T18:15:48.404Z,83.30
2019-04-16T18:18:21.677Z,84.10
2019-04-16T18:20:58.581Z,85.00
2019-04-16T18:23:34.737Z,85.80
2019-04-16T18:26:23.075Z,86.70
2019-04-16T18:29:13.254Z,88.20
2019-04-16T18:31:44.505Z,88.60
2019-04-16T18:34:17.446Z,90.20
2019-04-16T18:36:59.538Z,90.20
2019-04-16T18:39:37.436Z,91.20
2019-04-16T18:42:15.766Z,91.10
2019-04-16T18:44:51.260Z,91.70
2019-04-16T18:47:38.921Z,91.90
2019-04-16T18:50:11.287Z,92.20
2019-04-16T18:52:41.433Z,93.00
2019-04-16T18:55:10.853Z,93.60
2019-04-16T18:57:41.309Z,93.70
2019-04-16T19:00:15.233Z,93.90
2019-04-16T19:02:46.746Z,94.00
2019-04-16T19:05:16.270Z,94.80
2019-04-16T19:07:47.202Z,95.40
2019-04-16T19:10:18.470Z,96.00
2019-04-16T19:12:50.708Z,96.40
2019-04-16T19:15:21.470Z,97.30
2019-04-16T19:17:52.667Z,97.50
2019-04-16T19:20:24.220Z,97.70
2019-04-16T19:22:56.853Z,98.10
2019-04-16T19:25:27.579Z,99.20
2019-04-16T19:28:01.860Z,99.60
2019-04-16T19:30:32.035Z,99.90
2019-04-16T19:33:03.338Z,99.90
2019-04-16T19:35:34.607Z,99.90
2019-04-16T19:38:07.600Z,99.90
2019-04-16T19:40:38.840Z,99.90
2019-04-16T19:43:09.859Z,99.90
2019-04-16T19:45:43.733Z,99.90
2019-04-16T19:48:17.716Z,99.90
2019-04-16T19:50:48.277Z,99.90
2019-04-16T19:53:19.278Z,99.90
2019-04-16T19:55:49.477Z,99.90
2019-04-16T19:58:20.998Z,99.90
2019-04-16T20:00:54.078Z,99.90
2019-04-16T20:03:30.125Z,99.90
2019-04-16T20:05:58.731Z,99.90
2019-04-16T20:08:34.434Z,99.90
2019-04-16T20:11:02.119Z,99.90
2019-04-16T20:13:34.532Z,99.90
2019-04-16T20:16:06.732Z,99.90
2019-04-16T20:18:50.329Z,99.90
2019-04-16T20:21:09.262Z,99.90
2019-04-16T20:23:40.700Z,99.90
2019-04-16T20:26:11.421Z,99.90
2019-04-16T20:28:45.314Z,99.90
2019-04-16T20:31:15.821Z,99.90
2019-04-16T20:33:46.640Z,99.90
2019-04-16T20:36:22.443Z,99.90
2019-04-16T20:38:50.741Z,99.90
2019-04-16T20:41:21.650Z,99.90
2019-04-16T20:43:51.531Z,99.90
2019-04-16T20:46:22.959Z,99.90
2019-04-16T20:49:06.773Z,99.90
2019-04-16T20:51:27.573Z,99.90
2019-04-16T20:54:00.233Z,99.90
2019-04-16T20:56:31.993Z,99.90
2019-04-16T20:59:04.052Z,99.90
2019-04-16T21:01:37.414Z,99.90
2019-04-16T21:04:05.761Z,99.90
2019-04-16T21:06:33.634Z,99.90
2019-04-16T21:09:02.155Z,99.90
2019-04-16T21:11:30.631Z,99.90
2019-04-16T21:13:59.100Z,99.90
2019-04-16T21:16:27.579Z,99.90
2019-04-16T21:18:56.129Z,99.90
2019-04-16T21:21:24.584Z,99.90
2019-04-16T21:23:53.044Z,99.90
2019-04-16T21:26:21.628Z,99.90
2019-04-16T21:28:51.730Z,99.90
2019-04-16T21:31:24.939Z,99.90
2019-04-16T21:33:58.003Z,99.90
2019-04-16T21:36:33.915Z,99.90
2019-04-16T21:39:09.916Z,99.90
2019-04-16T21:41:38.366Z,99.90
2019-04-16T21:44:11.502Z,99.90
2019-04-16T21:46:37.041Z,99.90
2019-04-16T21:49:07.820Z,99.90
2019-04-16T21:51:37.308Z,99.90
2019-04-16T21:54:05.864Z,99.90
2019-04-16T21:56:36.897Z,99.90
2019-04-16T21:59:05.803Z,99.90
2019-04-16T22:01:36.762Z,99.90
2019-04-16T22:04:07.404Z,99.90
2019-04-16T22:06:36.236Z,99.90
2019-04-16T22:09:06.555Z,99.90
2019-04-16T22:11:35.179Z,99.90
2019-04-16T22:14:04.439Z,99.90
2019-04-16T22:16:32.972Z,99.90
2019-04-16T22:19:01.663Z,99.90
2019-04-16T22:21:30.185Z,99.90
2019-04-16T22:23:58.654Z,99.90
2019-04-16T22:26:27.127Z,99.90
2019-04-16T22:28:55.590Z,99.90
2019-04-16T22:31:24.925Z,99.90
2019-04-16T22:33:53.395Z,99.90
2019-04-16T22:36:21.916Z,99.90
2019-04-16T22:38:54.761Z,99.90
2019-04-16T22:41:41.039Z,99.90
2019-04-16T22:44:11.153Z,99.90
2019-04-16T22:46:47.469Z,99.90
2019-04-16T22:49:18.607Z,99.90
2019-04-16T22:51:46.256Z,99.90
2019-04-16T22:54:14.727Z,99.90
2019-04-16T22:56:53.856Z,99.90
2019-04-16T22:59:22.470Z,99.90
2019-04-16T23:01:53.151Z,99.90
2019-04-16T23:04:22.845Z,99.90
2019-04-16T23:06:51.303Z,99.90
2019-04-16T23:09:20.699Z,99.90
2019-04-16T23:11:49.158Z,99.90
2019-04-16T23:14:17.639Z,99.90
2019-04-16T23:16:46.099Z,99.90
2019-04-16T23:19:14.617Z,99.90
2019-04-16T23:21:44.784Z,99.90
2019-04-16T23:24:13.239Z,99.90
2019-04-16T23:26:41.762Z,99.90
2019-04-16T23:29:12.540Z,99.90
2019-04-16T23:31:40.424Z,99.90
2019-04-16T23:34:08.968Z,99.90
2019-04-16T23:36:37.439Z,99.90
2019-04-16T23:39:07.924Z,99.90
2019-04-16T23:41:36.381Z,99.90
2019-04-16T23:44:25.828Z,99.90
2019-04-16T23:46:55.140Z,99.90
2019-04-16T23:49:36.975Z,99.90
2019-04-16T23:52:16.075Z,99.90
2019-04-16T23:54:46.189Z,99.90
2019-04-16T23:57:35.688Z,99.90
